Time;durP1;ratioP1;P1;durP2;ratioP2;P2;SDS_P1;SDS_P2;PMS_P1;PMS_P2;Temp;Humidity;BMP_temperature;BMP_pressure;BME280_temperature;BME280_humidity;BME280_pressure;Samples;Min_cycle;Max_cycle;Signal;HPM_P1;HPM_P2
2021/06/07 00:00:53;;;;;;;14.32;9.05;;;;;;;18.43;61.50;94033.50;5110177;28;20372;-75
2021/06/07 00:03:19;;;;;;;13.40;8.57;;;;;;;18.39;60.89;94027.25;5111157;28;20035;-75
2021/06/07 00:05:44;;;;;;;12.00;9.65;;;;;;;18.41;61.03;94033.06;5103460;28;20478;-74
2021/06/07 00:08:10;;;;;;;9.98;8.95;;;;;;;18.43;60.59;94028.88;5106131;28;20042;-74
2021/06/07 00:10:36;;;;;;;11.15;9.25;;;;;;;18.42;60.47;94026.53;5110916;28;20126;-75
2021/06/07 00:13:03;;;;;;;12.57;9.35;;;;;;;18.46;60.84;94024.69;5111089;28;20073;-75
2021/06/07 00:15:33;;;;;;;14.45;9.57;;;;;;;18.46;61.23;94032.78;5111061;28;20028;-75
2021/06/07 00:17:58;;;;;;;12.63;9.45;;;;;;;18.38;61.69;94025.69;5110956;28;20058;-74
2021/06/07 00:20:30;;;;;;;11.98;10.00;;;;;;;18.32;62.35;94033.31;5102730;28;20161;-75
2021/06/07 00:22:56;;;;;;;12.82;9.98;;;;;;;18.28;62.55;94035.16;5090700;28;20032;-74
2021/06/07 00:25:21;;;;;;;12.63;9.95;;;;;;;18.25;63.51;94027.75;5090297;28;20028;-74
2021/06/07 00:27:46;;;;;;;11.93;9.23;;;;;;;18.23;63.04;94030.81;5090578;28;20077;-75
2021/06/07 00:30:12;;;;;;;10.50;8.85;;;;;;;18.23;62.92;94011.94;5090583;28;20039;-74
2021/06/07 00:32:38;;;;;;;14.13;10.23;;;;;;;18.21;63.22;94016.13;5088518;28;20020;-75
2021/06/07 00:35:04;;;;;;;11.43;10.23;;;;;;;18.19;63.22;94013.78;5096200;28;20039;-75
2021/06/07 00:37:29;;;;;;;15.30;9.93;;;;;;;18.22;62.92;94017.69;5109375;28;20052;-75
2021/06/07 00:39:55;;;;;;;14.57;10.57;;;;;;;18.23;63.49;94020.00;5110559;28;20045;-75
2021/06/07 00:42:21;;;;;;;11.80;10.32;;;;;;;18.24;63.58;94013.50;5110634;28;20107;-75
2021/06/07 00:44:46;;;;;;;17.25;11.48;;;;;;;18.25;64.65;94017.75;5108800;28;20114;-75
2021/06/07 00:47:12;;;;;;;15.60;10.55;;;;;;;18.28;65.23;94018.16;5103927;28;20020;-75
2021/06/07 00:49:38;;;;;;;14.98;10.68;;;;;;;18.27;64.69;94025.50;5090034;28;20055;-75
2021/06/07 00:52:04;;;;;;;14.80;9.88;;;;;;;18.28;65.31;94020.88;5088777;28;20055;-73
2021/06/07 00:54:30;;;;;;;15.52;11.30;;;;;;;18.23;65.26;94030.81;5107613;28;20030;-74
2021/06/07 00:56:55;;;;;;;12.02;10.35;;;;;;;18.19;64.85;94029.97;5109411;28;20016;-74
2021/06/07 00:59:20;;;;;;;12.50;10.20;;;;;;;18.17;65.15;94026.06;5104390;28;20023;-74
2021/06/07 01:01:46;;;;;;;12.65;11.07;;;;;;;18.15;65.75;94031.81;5109029;28;20487;-74
2021/06/07 01:04:12;;;;;;;12.77;10.05;;;;;;;18.13;65.69;94022.53;5110238;28;20110;-74
2021/06/07 01:06:39;;;;;;;13.75;11.48;;;;;;;18.12;65.78;94029.06;5110341;28;20066;-74
2021/06/07 01:09:06;;;;;;;20.35;11.70;;;;;;;18.12;66.09;94026.38;5108763;28;20035;-73
2021/06/07 01:11:33;;;;;;;16.77;12.43;;;;;;;18.13;66.11;94017.13;5104729;28;20047;-74
2021/06/07 01:13:59;;;;;;;16.80;12.00;;;;;;;18.13;66.02;94017.13;5089799;28;20061;-74
2021/06/07 01:16:24;;;;;;;13.32;10.85;;;;;;;18.14;66.47;94021.41;5095192;28;20419;-74
2021/06/07 01:18:50;;;;;;;19.08;12.32;;;;;;;18.11;66.42;94017.47;5090070;28;20031;-74
2021/06/07 01:21:20;;;;;;;16.40;12.27;;;;;;;18.12;66.34;94016.34;5109076;28;20032;-74
2021/06/07 01:23:47;;;;;;;15.02;12.30;;;;;;;18.12;66.55;94004.78;5110138;28;20109;-73
2021/06/07 01:26:15;;;;;;;17.23;12.63;;;;;;;18.08;66.25;94012.81;5110049;28;20036;-74
2021/06/07 01:28:41;;;;;;;13.75;11.35;;;;;;;18.08;66.10;94018.22;5108913;28;20566;-73
2021/06/07 01:31:08;;;;;;;14.15;12.25;;;;;;;18.05;65.72;94016.22;5089617;28;20103;-74
2021/06/07 01:33:37;;;;;;;17.02;11.18;;;;;;;17.98;65.72;94018.78;5089741;28;20547;-73
2021/06/07 01:36:05;;;;;;;15.82;12.23;;;;;;;17.97;65.56;94009.13;5089757;28;20043;-73
2021/06/07 01:38:30;;;;;;;18.27;12.45;;;;;;;17.96;66.04;94010.28;5089480;28;20035;-73
2021/06/07 01:41:02;;;;;;;15.13;11.60;;;;;;;17.90;66.39;94009.78;5089764;28;20032;-73
2021/06/07 01:43:29;;;;;;;15.30;11.75;;;;;;;17.92;66.91;94014.81;5089429;28;20049;-73
2021/06/07 01:45:55;;;;;;;17.05;11.98;;;;;;;17.95;67.27;94020.28;5088360;28;20516;-73
2021/06/07 01:48:21;;;;;;;15.13;11.77;;;;;;;17.94;67.01;94017.94;5089413;28;20027;-73
2021/06/07 01:50:48;;;;;;;15.63;12.20;;;;;;;17.93;66.79;94017.16;5089720;28;20077;-73
2021/06/07 01:53:15;;;;;;;15.40;11.65;;;;;;;17.95;67.23;94014.88;5089497;28;20016;-73
2021/06/07 01:55:46;;;;;;;25.08;13.18;;;;;;;17.94;67.33;94018.72;5089576;28;20016;-73
2021/06/07 01:58:14;;;;;;;17.02;12.02;;;;;;;17.88;66.99;94009.34;5089306;28;20028;-73
2021/06/07 02:00:42;;;;;;;18.33;13.23;;;;;;;17.88;67.63;94013.97;5089354;28;20115;-73
2021/06/07 02:03:08;;;;;;;15.35;12.05;;;;;;;17.90;67.89;94017.84;5089511;28;20403;-73
2021/06/07 02:05:36;;;;;;;15.43;11.75;;;;;;;17.92;68.09;94026.38;5088073;28;20019;-73
2021/06/07 02:08:06;;;;;;;17.58;12.77;;;;;;;17.91;68.36;94022.13;5094258;28;20031;-73
2021/06/07 02:10:35;;;;;;;18.77;12.75;;;;;;;17.91;68.18;94022.13;5108244;28;20086;-73
2021/06/07 02:13:00;;;;;;;20.48;13.43;;;;;;;17.90;68.13;94023.25;5113242;28;20586;-74
2021/06/07 02:15:26;;;;;;;17.58;13.35;;;;;;;17.87;67.89;94012.38;5113468;28;20032;-74
2021/06/07 02:17:51;;;;;;;14.20;11.98;;;;;;;17.87;68.32;94017.78;5111951;28;20023;-74
2021/06/07 02:20:20;;;;;;;13.57;12.10;;;;;;;17.85;68.09;94015.47;5111953;28;20071;-74
2021/06/07 02:22:46;;;;;;;15.10;12.88;;;;;;;17.82;68.42;94022.28;5112018;28;20036;-74
2021/06/07 02:25:14;;;;;;;15.48;12.60;;;;;;;17.77;68.41;94019.88;5113073;28;20497;-74
2021/06/07 02:27:40;;;;;;;17.45;12.75;;;;;;;17.69;67.94;94020.88;5113172;28;20085;-74
2021/06/07 02:30:27;;;;;;;18.30;12.35;;;;;;;17.67;68.04;94016.97;5111793;28;20031;-74
2021/06/07 02:32:55;;;;;;;16.05;13.15;;;;;;;17.67;68.48;94009.69;5111989;28;20027;-74
2021/06/07 02:35:21;;;;;;;24.55;13.15;;;;;;;17.71;67.83;94015.91;5111584;28;20028;-74
2021/06/07 02:37:49;;;;;;;15.23;12.35;;;;;;;17.69;67.55;94012.78;5112915;27;20024;-74
2021/06/07 02:40:28;;;;;;;20.75;12.40;;;;;;;17.72;68.34;94022.09;5112724;28;20402;-74
2021/06/07 02:42:54;;;;;;;21.33;12.75;;;;;;;17.72;68.17;94017.47;5112821;28;20032;-75
2021/06/07 02:45:20;;;;;;;18.15;13.20;;;;;;;17.71;68.46;94020.50;5111306;28;20067;-75
2021/06/07 02:47:49;;;;;;;16.67;13.05;;;;;;;17.70;68.39;94008.19;5112820;28;20037;-74
2021/06/07 02:50:17;;;;;;;15.30;12.40;;;;;;;17.71;68.62;94013.22;5111116;28;20497;-75
2021/06/07 02:52:49;;;;;;;22.20;13.40;;;;;;;17.74;68.84;94014.41;5112769;28;20031;-75
2021/06/07 02:55:23;;;;;;;19.15;13.75;;;;;;;17.74;68.75;94011.72;5112701;28;20038;-74
2021/06/07 02:57:50;;;;;;;21.35;13.23;;;;;;;17.73;68.78;94012.88;5092262;28;20035;-74
2021/06/07 03:00:19;;;;;;;22.05;13.40;;;;;;;17.74;68.86;94017.88;5092189;28;20101;-74
2021/06/07 03:02:45;;;;;;;18.17;12.88;;;;;;;17.74;69.25;94015.19;5091904;28;20107;-74
2021/06/07 03:05:11;;;;;;;17.35;13.38;;;;;;;17.74;69.12;94014.41;5092019;28;20123;-74
2021/06/07 03:07:36;;;;;;;17.85;12.65;;;;;;;17.72;68.85;94009.38;5092017;28;20085;-74
2021/06/07 03:10:05;;;;;;;15.63;12.98;;;;;;;17.70;69.01;94030.50;5103593;28;20048;-74
2021/06/07 03:12:31;;;;;;;20.45;13.52;;;;;;;17.65;68.56;94022.72;5112080;28;20072;-74
2021/06/07 03:14:56;;;;;;;18.27;13.63;;;;;;;17.59;68.59;94027.59;5098928;28;20036;-74
2021/06/07 03:17:22;;;;;;;17.33;13.20;;;;;;;17.60;68.46;94031.06;5090498;28;20050;-74
2021/06/07 03:19:48;;;;;;;18.48;13.00;;;;;;;17.61;68.47;94032.66;5090336;28;20115;-74
2021/06/07 03:22:13;;;;;;;25.42;12.32;;;;;;;17.61;68.12;94027.25;5091265;28;20077;-74
2021/06/07 03:24:39;;;;;;;16.17;12.43;;;;;;;17.60;67.95;94031.84;5109103;28;20447;-74
2021/06/07 03:27:05;;;;;;;13.23;11.07;;;;;;;17.60;66.91;94031.06;5110471;28;20030;-74
2021/06/07 03:29:30;;;;;;;16.38;12.95;;;;;;;17.64;67.04;94027.31;5110622;28;20171;-74
2021/06/07 03:31:56;;;;;;;16.77;13.13;;;;;;;17.68;67.36;94024.69;5111793;28;20107;-73
2021/06/07 03:34:21;;;;;;;16.40;12.48;;;;;;;17.71;67.20;94034.78;5111986;28;20034;-74
2021/06/07 03:36:47;;;;;;;16.60;12.43;;;;;;;17.75;66.85;94035.63;5111487;28;20023;-74
2021/06/07 03:39:12;;;;;;;17.00;13.05;;;;;;;17.75;67.34;94032.94;5111563;28;20020;-74
2021/06/07 03:41:38;;;;;;;14.65;11.55;;;;;;;17.74;67.01;94030.59;5111019;28;20030;-74
2021/06/07 03:44:03;;;;;;;16.27;12.20;;;;;;;17.77;67.35;94035.28;5109744;28;20057;-74
2021/06/07 03:46:29;;;;;;;19.83;12.18;;;;;;;17.79;67.13;94028.41;5111516;28;20023;-74
2021/06/07 03:48:54;;;;;;;20.48;13.95;;;;;;;17.78;67.87;94034.16;5101001;28;20028;-74
2021/06/07 03:51:20;;;;;;;17.67;13.43;;;;;;;17.80;66.48;94032.66;5089446;28;20047;-74
2021/06/07 03:53:45;;;;;;;20.17;12.07;;;;;;;17.79;65.98;94039.19;5090870;28;20023;-74
2021/06/07 03:56:11;;;;;;;16.98;11.40;;;;;;;17.84;65.54;94035.44;5102754;28;20374;-74
2021/06/07 03:58:36;;;;;;;16.52;12.43;;;;;;;17.84;65.83;94038.16;5111359;28;20032;-74
2021/06/07 04:01:02;;;;;;;17.60;12.27;;;;;;;17.80;65.00;94037.25;5100669;28;20047;-74
2021/06/07 04:03:27;;;;;;;15.75;12.38;;;;;;;17.87;65.27;94037.44;5097388;28;20054;-74
2021/06/07 04:05:52;;;;;;;18.73;11.82;;;;;;;17.94;65.58;94042.19;5109569;28;20470;-74
2021/06/07 04:08:18;;;;;;;17.23;12.18;;;;;;;18.02;65.99;94038.50;5109596;28;20553;-74
2021/06/07 04:10:46;;;;;;;21.70;11.10;;;;;;;18.10;65.63;94039.44;5110870;28;20460;-73
2021/06/07 04:13:12;;;;;;;21.48;12.18;;;;;;;18.19;66.10;94034.59;5109602;28;20038;-75
2021/06/07 04:15:38;;;;;;;23.42;12.43;;;;;;;18.29;65.95;94035.94;5109916;28;20060;-74
2021/06/07 04:18:05;;;;;;;21.50;12.38;;;;;;;18.36;65.87;94044.13;5109294;28;20554;-74
2021/06/07 04:20:32;;;;;;;16.45;11.82;;;;;;;18.45;65.27;94036.59;5109473;28;20406;-75
2021/06/07 04:22:58;;;;;;;15.68;12.45;;;;;;;18.50;64.86;94044.44;5093961;28;20039;-74
2021/06/07 04:25:25;;;;;;;15.95;11.77;;;;;;;18.53;64.66;94041.00;5090438;28;20499;-75
2021/06/07 04:27:51;;;;;;;18.77;11.32;;;;;;;18.52;64.26;94042.16;5089250;28;20031;-74
2021/06/07 04:30:19;;;;;;;17.70;12.75;;;;;;;18.59;63.25;94049.59;5090403;28;20376;-74
2021/06/07 04:32:46;;;;;;;17.80;12.25;;;;;;;18.58;63.43;94040.72;5104336;28;20511;-74
2021/06/07 04:35:14;;;;;;;15.07;11.32;;;;;;;18.67;62.11;94047.78;5098931;28;20091;-74
2021/06/07 04:37:50;;;;;;;14.73;11.40;;;;;;;18.68;61.19;94052.03;5110494;28;20038;-74
2021/06/07 04:40:21;;;;;;;20.58;10.63;;;;;;;18.78;61.71;94049.50;5090907;28;20031;-74
2021/06/07 04:42:46;;;;;;;14.90;10.85;;;;;;;18.80;60.85;94047.25;5092545;28;20027;-74
2021/06/07 04:45:13;;;;;;;15.40;11.43;;;;;;;18.79;61.08;94039.53;5108871;28;20024;-74
2021/06/07 04:47:38;;;;;;;16.55;11.10;;;;;;;18.82;60.79;94041.50;5104913;28;20027;-74
2021/06/07 04:50:07;;;;;;;17.92;11.02;;;;;;;18.87;59.68;94035.03;5094907;28;20379;-78
2021/06/07 04:52:33;;;;;;;12.82;10.70;;;;;;;18.94;59.60;94041.31;5101605;28;20031;-73
2021/06/07 04:54:59;;;;;;;14.82;11.07;;;;;;;19.00;59.86;94039.88;5102514;28;20019;-73
2021/06/07 04:57:24;;;;;;;14.80;11.90;;;;;;;18.99;60.18;94045.63;5098884;28;20041;-73
2021/06/07 04:59:50;;;;;;;18.05;11.60;;;;;;;18.94;61.00;94046.72;5089986;28;20463;-73
2021/06/07 05:02:15;;;;;;;17.50;11.85;;;;;;;18.95;60.52;94037.50;5104082;28;20085;-73
2021/06/07 05:04:40;;;;;;;16.13;10.50;;;;;;;18.91;61.27;94043.97;5103656;28;20023;-74
2021/06/07 05:07:06;;;;;;;16.50;11.68;;;;;;;19.00;61.51;94052.59;5092659;28;20081;-73
2021/06/07 05:09:31;;;;;;;14.85;11.88;;;;;;;19.11;60.07;94044.66;5090317;28;20030;-73
2021/06/07 05:11:57;;;;;;;19.02;11.77;;;;;;;19.12;59.90;94046.25;5099911;28;20040;-73
2021/06/07 05:14:22;;;;;;;14.27;10.77;;;;;;;19.18;59.42;94050.19;5095851;28;20118;-74
2021/06/07 05:16:48;;;;;;;16.80;11.60;;;;;;;19.22;58.84;94048.31;5102225;28;20102;-73
2021/06/07 05:19:13;;;;;;;14.93;10.43;;;;;;;19.29;59.67;94051.13;5109130;28;20027;-73
2021/06/07 05:21:39;;;;;;;21.58;12.15;;;;;;;19.31;59.55;94056.94;5094555;28;20467;-73
2021/06/07 05:24:04;;;;;;;15.55;11.73;;;;;;;19.43;59.43;94045.16;5094847;28;20015;-73
2021/06/07 05:26:30;;;;;;;15.30;10.27;;;;;;;19.49;59.37;94053.72;5104877;28;20066;-73
2021/06/07 05:28:56;;;;;;;18.80;11.15;;;;;;;19.55;58.69;94050.34;5101728;28;20372;-73
2021/06/07 05:31:24;;;;;;;21.27;11.15;;;;;;;19.59;58.43;94048.47;5103575;28;20016;-73
2021/06/07 05:33:50;;;;;;;20.13;10.82;;;;;;;19.74;58.00;94048.69;5100550;28;20474;-73
2021/06/07 05:36:15;;;;;;;25.35;11.38;;;;;;;19.80;57.18;94049.91;5105009;28;20027;-73
2021/06/07 05:38:40;;;;;;;16.95;10.55;;;;;;;19.87;56.83;94052.72;5100073;28;20019;-73
2021/06/07 05:41:06;;;;;;;16.63;10.77;;;;;;;20.00;56.61;94045.16;5103559;28;20089;-73
2021/06/07 05:43:31;;;;;;;16.92;10.48;;;;;;;19.97;55.48;94046.66;5099746;28;20047;-73
2021/06/07 05:45:57;;;;;;;18.05;10.55;;;;;;;19.95;56.21;94056.31;5107214;28;20020;-73
2021/06/07 05:48:22;;;;;;;19.83;10.75;;;;;;;19.79;56.92;94059.97;5104378;28;20111;-73
2021/06/07 05:50:48;;;;;;;17.63;9.85;;;;;;;19.88;56.03;94059.69;5094804;28;20023;-73
2021/06/07 05:53:14;;;;;;;16.65;10.70;;;;;;;19.96;55.11;94057.84;5099701;28;20050;-73
2021/06/07 05:55:44;;;;;;;23.95;10.85;;;;;;;20.01;55.70;94060.25;5096434;28;20031;-73
2021/06/07 05:58:21;;;;;;;16.10;10.35;;;;;;;20.12;55.00;94057.66;5106012;28;20868;-73
2021/06/07 06:00:49;;;;;;;19.27;8.98;;;;;;;20.16;55.24;94053.84;5103929;28;20035;-73
2021/06/07 06:03:15;;;;;;;13.27;9.68;;;;;;;20.23;54.53;94053.94;5107089;28;20113;-74
2021/06/07 06:05:41;;;;;;;17.92;9.10;;;;;;;20.24;53.69;94063.59;5102564;28;20019;-73
2021/06/07 06:08:08;;;;;;;16.67;10.20;;;;;;;20.26;54.73;94057.06;5095143;28;20031;-73
2021/06/07 06:10:35;;;;;;;17.45;10.27;;;;;;;20.35;54.20;94062.94;5099555;28;20229;-73
2021/06/07 06:13:01;;;;;;;15.35;9.98;;;;;;;20.26;54.19;94065.94;5103675;28;20027;-73
2021/06/07 06:15:26;;;;;;;13.25;8.63;;;;;;;20.27;53.98;94064.00;5100200;28;20046;-73
2021/06/07 06:17:53;;;;;;;16.42;8.10;;;;;;;20.31;53.10;94059.41;5101333;28;20412;-73
2021/06/07 06:20:19;;;;;;;10.75;8.65;;;;;;;20.23;53.45;94050.44;5106391;28;20031;-73
2021/06/07 06:22:46;;;;;;;10.63;8.75;;;;;;;20.10;53.40;94060.72;5110435;28;20418;-74
2021/06/07 06:25:13;;;;;;;15.43;8.68;;;;;;;20.00;53.88;94058.69;5103856;28;20087;-74
2021/06/07 06:27:40;;;;;;;15.88;9.38;;;;;;;20.07;54.75;94057.97;5110524;28;20135;-74
2021/06/07 06:30:08;;;;;;;14.15;9.32;;;;;;;20.04;53.69;94056.78;5103306;28;20036;-74
2021/06/07 06:32:33;;;;;;;11.93;8.77;;;;;;;20.11;53.88;94056.88;5106657;28;20392;-74
2021/06/07 06:34:59;;;;;;;11.93;8.45;;;;;;;20.23;53.99;94061.25;5100995;28;20040;-74
2021/06/07 06:37:24;;;;;;;15.73;8.70;;;;;;;20.23;54.41;94058.56;5096924;28;20057;-74
2021/06/07 06:39:50;;;;;;;11.57;8.10;;;;;;;20.27;53.12;94059.38;5109851;28;20541;-74
2021/06/07 06:42:15;;;;;;;14.07;7.72;;;;;;;20.36;52.81;94057.16;5100873;28;20522;-73
2021/06/07 06:44:41;;;;;;;22.60;7.80;;;;;;;20.40;53.10;94057.22;5104320;28;20032;-74
2021/06/07 06:47:06;;;;;;;11.10;7.90;;;;;;;20.39;52.53;94066.47;5094165;28;20027;-74
2021/06/07 06:49:31;;;;;;;15.45;7.63;;;;;;;20.39;53.01;94055.63;5106946;28;20449;-74
2021/06/07 06:51:59;;;;;;;11.43;7.47;;;;;;;20.47;52.32;94062.69;5110665;28;20468;-74
2021/06/07 06:54:24;;;;;;;15.18;8.20;;;;;;;20.53;53.00;94069.31;5108134;28;20032;-74
2021/06/07 06:56:51;;;;;;;12.50;8.60;;;;;;;20.42;52.91;94063.03;5098796;28;20043;-74
2021/06/07 06:59:17;;;;;;;15.85;8.05;;;;;;;20.35;53.65;94071.06;5095032;28;20029;-74
2021/06/07 07:01:42;;;;;;;12.38;7.82;;;;;;;20.48;53.21;94072.38;5103026;28;20059;-74
2021/06/07 07:04:08;;;;;;;15.13;7.78;;;;;;;20.43;52.32;94072.69;5092246;28;21466;-74
2021/06/07 07:06:33;;;;;;;8.15;7.13;;;;;;;20.35;51.69;94076.47;5092039;28;20028;-73
2021/06/07 07:08:59;;;;;;;15.23;7.55;;;;;;;20.37;52.22;94064.16;5101503;28;20036;-74
2021/06/07 07:11:24;;;;;;;10.63;7.47;;;;;;;20.35;52.75;94066.44;5100463;28;20086;-73
2021/06/07 07:13:49;;;;;;;12.70;7.65;;;;;;;20.48;53.31;94063.50;5100097;28;20030;-73
2021/06/07 07:16:15;;;;;;;15.23;7.10;;;;;;;20.63;53.57;94071.38;5105188;28;20024;-73
2021/06/07 07:18:40;;;;;;;10.60;7.20;;;;;;;20.69;52.04;94074.56;5111164;28;20034;-73
2021/06/07 07:21:06;;;;;;;13.07;8.43;;;;;;;20.60;52.02;94072.16;5112097;28;20062;-73
2021/06/07 07:23:33;;;;;;;10.15;6.63;;;;;;;20.68;52.34;94066.78;5111821;28;20024;-73
2021/06/07 07:25:59;;;;;;;9.65;7.63;;;;;;;20.64;52.93;94069.47;5097168;28;20016;-77
2021/06/07 07:28:24;;;;;;;12.73;7.55;;;;;;;20.55;52.63;94072.44;5111488;28;20031;-75
2021/06/07 07:30:50;;;;;;;10.48;7.88;;;;;;;20.62;51.97;94061.72;5093008;28;20024;-73
2021/06/07 07:33:15;;;;;;;14.98;8.23;;;;;;;20.75;52.61;94067.66;5092719;28;20115;-72
2021/06/07 07:35:41;;;;;;;15.77;7.88;;;;;;;20.91;52.47;94075.53;5096745;28;20026;-74
2021/06/07 07:38:07;;;;;;;10.80;7.57;;;;;;;21.10;51.97;94065.63;5096914;28;20123;-72
2021/06/07 07:40:33;;;;;;;11.70;7.60;;;;;;;21.25;51.86;94067.31;5093649;28;20097;-74
2021/06/07 07:42:59;;;;;;;11.77;7.63;;;;;;;21.20;50.72;94073.84;5098014;28;20027;-74
2021/06/07 07:45:29;;;;;;;11.18;8.07;;;;;;;21.08;51.29;94073.34;5103341;28;20028;-75
2021/06/07 07:47:56;;;;;;;7.95;6.80;;;;;;;21.20;50.68;94081.19;5102507;28;20058;-74
2021/06/07 07:50:23;;;;;;;10.55;7.25;;;;;;;21.39;50.33;94063.91;5094829;28;20104;-72
2021/06/07 07:52:49;;;;;;;12.48;7.75;;;;;;;21.61;50.67;94068.34;5091134;28;20016;-72
2021/06/07 07:55:18;;;;;;;18.15;6.72;;;;;;;21.78;49.96;94064.19;5107472;28;20505;-73
2021/06/07 07:57:43;;;;;;;10.52;7.38;;;;;;;21.78;50.46;94069.63;5112348;28;20098;-73
2021/06/07 08:00:11;;;;;;;9.65;7.28;;;;;;;21.67;49.67;94082.34;5111371;28;20640;-74
2021/06/07 08:02:36;;;;;;;9.55;7.88;;;;;;;21.79;50.50;94067.69;5083604;28;20017;-72
2021/06/07 08:05:03;;;;;;;16.00;8.07;;;;;;;22.05;50.25;94066.66;5100401;28;20450;-74
2021/06/07 08:07:28;;;;;;;9.65;7.85;;;;;;;22.23;49.17;94062.09;5102192;28;20116;-74
2021/06/07 08:09:54;;;;;;;13.00;8.73;;;;;;;22.35;49.23;94066.41;5111259;28;20391;-73
2021/06/07 08:12:19;;;;;;;16.02;8.82;;;;;;;22.39;48.45;94061.00;5103086;28;20459;-73
2021/06/07 08:14:45;;;;;;;11.10;7.43;;;;;;;22.51;48.05;94076.16;5100049;28;20028;-72
2021/06/07 08:17:10;;;;;;;16.23;8.32;;;;;;;22.64;48.33;94071.94;5095932;28;20024;-75
2021/06/07 08:19:36;;;;;;;13.98;8.27;;;;;;;22.71;47.48;94068.44;5095372;28;20027;-76
2021/06/07 08:22:02;;;;;;;11.25;7.07;;;;;;;22.76;47.38;94068.06;5115821;27;20129;-75
2021/06/07 08:24:28;;;;;;;18.45;7.70;;;;;;;22.64;47.10;94064.53;5096171;28;20028;-76
2021/06/07 08:26:53;;;;;;;15.68;8.20;;;;;;;22.42;47.81;94066.41;5093183;28;20077;-76
2021/06/07 08:29:19;;;;;;;9.32;7.30;;;;;;;22.41;47.28;94069.53;5097329;28;20110;-75
2021/06/07 08:31:44;;;;;;;9.85;7.30;;;;;;;22.37;47.74;94068.75;5107037;28;20139;-75
2021/06/07 08:34:10;;;;;;;12.68;7.00;;;;;;;22.33;47.91;94065.25;5110132;28;20028;-76
2021/06/07 08:36:35;;;;;;;11.00;7.65;;;;;;;22.35;47.62;94060.97;5104387;28;20031;-77
2021/06/07 08:39:01;;;;;;;20.52;8.35;;;;;;;22.26;47.83;94073.34;5092308;28;20106;-74
2021/06/07 08:41:27;;;;;;;12.20;8.15;;;;;;;22.30;48.46;94066.78;5091268;28;20035;-75
2021/06/07 08:43:52;;;;;;;10.68;7.28;;;;;;;22.29;48.62;94067.16;5091111;28;20072;-73
2021/06/07 08:46:18;;;;;;;10.75;8.65;;;;;;;22.23;50.45;94066.72;5091137;28;20042;-74
2021/06/07 08:48:43;;;;;;;23.40;9.25;;;;;;;22.21;50.27;94061.69;5089996;28;20020;-73
2021/06/07 08:51:10;;;;;;;13.07;8.30;;;;;;;22.33;51.14;94057.09;5097771;28;20026;-72
2021/06/07 08:53:35;;;;;;;18.13;8.93;;;;;;;22.36;49.27;94061.75;5090452;28;20411;-76
2021/06/07 08:56:01;;;;;;;9.27;6.45;;;;;;;22.41;49.84;94064.13;5109920;28;20019;-73
2021/06/07 08:58:26;;;;;;;6.55;4.78;;;;;;;22.33;46.51;94051.66;5105759;28;20031;-74
2021/06/07 09:00:52;;;;;;;5.50;3.63;;;;;;;22.20;45.13;94059.34;5100691;28;20093;-75
2021/06/07 09:03:20;;;;;;;7.13;3.63;;;;;;;22.10;46.32;94055.41;5103861;28;20038;-76
2021/06/07 09:05:53;;;;;;;13.85;4.53;;;;;;;21.87;46.90;94071.97;5111105;28;20104;-76
2021/06/07 09:08:18;;;;;;;6.65;4.50;;;;;;;21.69;48.21;94057.53;5110977;28;20019;-75
2021/06/07 09:10:51;;;;;;;7.43;4.32;;;;;;;21.62;48.77;94058.28;5093093;28;20427;-77
2021/06/07 09:13:21;;;;;;;5.70;3.88;;;;;;;21.67;45.66;94049.78;5090655;28;20058;-74
2021/06/07 09:15:52;;;;;;;4.72;3.25;;;;;;;21.63;46.25;94057.13;5090123;28;20059;-76
2021/06/07 09:18:32;;;;;;;22.42;4.00;;;;;;;21.74;48.43;94052.53;5094440;28;20453;-76
2021/06/07 09:21:12;;;;;;;8.98;5.47;;;;;;;21.89;51.16;94052.63;5091154;28;20487;-76
2021/06/07 09:23:43;;;;;;;13.18;6.43;;;;;;;22.06;51.69;94059.28;5111645;28;20027;-74
2021/06/07 09:26:26;;;;;;;11.32;6.20;;;;;;;22.13;50.74;94037.59;5115902;28;20023;-73
2021/06/07 09:28:54;;;;;;;11.25;6.22;;;;;;;22.09;49.54;94039.53;5110613;28;20035;-76
2021/06/07 09:31:26;;;;;;;12.20;7.43;;;;;;;22.01;52.71;94049.56;5109797;28;20028;-75
2021/06/07 09:33:52;;;;;;;9.02;6.60;;;;;;;21.70;51.15;94057.19;5109477;28;20451;-74
2021/06/07 09:36:30;;;;;;;12.25;6.95;;;;;;;21.51;50.93;94060.16;5102101;28;20043;-74
2021/06/07 09:39:01;;;;;;;12.15;6.07;;;;;;;21.07;52.01;94061.75;5102710;28;20032;-75
2021/06/07 09:41:49;;;;;;;8.87;5.63;;;;;;;20.69;51.87;94068.34;5097243;28;20028;-75
2021/06/07 09:44:23;;;;;;;8.95;5.55;;;;;;;20.51;52.77;94077.03;5104490;28;20024;-75
2021/06/07 09:46:50;;;;;;;10.02;6.63;;;;;;;20.37;55.17;94074.19;5115041;28;20114;-75
2021/06/07 09:49:21;;;;;;;15.40;7.63;;;;;;;20.17;57.29;94076.25;5109409;28;20113;-76
2021/06/07 09:51:57;;;;;;;14.45;7.40;;;;;;;20.01;59.33;94079.19;5102842;28;20020;-76
2021/06/07 09:54:24;;;;;;;15.43;8.20;;;;;;;20.02;60.25;94075.31;5100128;28;20077;-77
2021/06/07 09:56:51;;;;;;;12.23;9.13;;;;;;;19.88;61.29;94075.13;5109985;28;20039;-76
2021/06/07 09:59:27;;;;;;;17.58;9.85;;;;;;;19.82;61.73;94078.19;5108238;28;20069;-77
2021/06/07 10:01:52;;;;;;;12.65;10.02;;;;;;;19.88;62.80;94075.91;5111676;27;20023;-76
2021/06/07 10:04:18;;;;;;;17.50;11.02;;;;;;;19.99;62.50;94081.47;5104703;28;20031;-77
2021/06/07 10:06:43;;;;;;;13.75;9.38;;;;;;;20.13;63.47;94072.72;5104855;28;20046;-77
2021/06/07 10:09:11;;;;;;;17.85;10.73;;;;;;;20.31;64.15;94075.66;5107820;28;20076;-76
2021/06/07 10:11:42;;;;;;;17.83;10.20;;;;;;;20.43;63.40;94067.28;5100328;28;20051;-76
2021/06/07 10:14:22;;;;;;;20.73;11.68;;;;;;;20.49;61.89;94063.09;5098270;28;20032;-76
2021/06/07 10:17:00;;;;;;;14.25;10.30;;;;;;;20.33;60.92;94070.66;5103906;28;20034;-77
2021/06/07 10:22:19;;;;;;;19.92;10.88;;;;;;;20.30;63.57;94071.41;5084223;28;20048;-76
2021/06/07 10:24:45;;;;;;;17.00;10.38;;;;;;;20.21;64.75;94067.06;5098322;28;20020;-76
2021/06/07 10:27:10;;;;;;;15.07;9.98;;;;;;;20.11;63.36;94075.84;5102694;28;20062;-77
2021/06/07 10:29:43;;;;;;;12.48;9.70;;;;;;;20.01;63.51;94073.78;5104809;28;20111;-76
2021/06/07 10:32:17;;;;;;;11.93;10.10;;;;;;;19.84;62.99;94070.47;5104805;28;20555;-77
2021/06/07 10:34:50;;;;;;;14.13;9.65;;;;;;;19.69;63.55;94067.91;5109807;28;20475;-80
2021/06/07 10:37:16;;;;;;;13.07;10.70;;;;;;;19.35;64.42;94060.47;5103522;28;20453;-80
2021/06/07 10:39:42;;;;;;;13.18;9.15;;;;;;;19.01;64.10;94065.75;5106224;28;20031;-79
2021/06/07 10:42:07;;;;;;;13.48;9.32;;;;;;;18.91;64.51;94058.25;5104338;28;20077;-81
2021/06/07 10:44:43;;;;;;;8.30;6.72;;;;;;;18.81;62.34;94048.84;5112515;28;20027;-78
2021/06/07 10:47:14;;;;;;;13.30;9.15;;;;;;;18.78;66.07;94054.91;5103900;28;20024;-79
2021/06/07 10:49:43;;;;;;;15.05;8.80;;;;;;;18.87;66.23;94052.03;5110418;28;20024;-76
2021/06/07 10:52:19;;;;;;;14.65;9.65;;;;;;;18.98;67.59;94047.56;5108238;28;20015;-79
2021/06/07 10:55:07;;;;;;;11.50;8.65;;;;;;;18.98;66.01;94047.56;5120673;28;20032;-76
2021/06/07 10:57:45;;;;;;;11.30;7.80;;;;;;;19.09;65.51;94052.34;5110495;28;20087;-77
2021/06/07 11:00:23;;;;;;;9.77;7.15;;;;;;;19.20;64.32;94047.91;5100390;28;20181;-76
2021/06/07 11:02:50;;;;;;;12.98;9.88;;;;;;;19.27;63.62;94053.41;5103386;28;20406;-78
2021/06/07 11:05:16;;;;;;;11.05;7.05;;;;;;;19.36;62.10;94053.94;5100977;28;20034;-78
2021/06/07 11:08:06;;;;;;;10.43;7.25;;;;;;;19.53;62.10;94054.56;5099900;28;20012;-77
2021/06/07 11:10:40;;;;;;;8.63;7.07;;;;;;;19.77;64.37;94043.31;5095259;28;20103;-78
2021/06/07 11:13:18;;;;;;;12.05;8.73;;;;;;;19.96;64.92;94049.75;5099580;28;20107;-76
2021/06/07 11:15:58;;;;;;;12.95;10.40;;;;;;;20.22;65.78;94046.94;5107056;28;20122;-75
2021/06/07 11:18:29;;;;;;;18.45;10.50;;;;;;;20.42;64.87;94052.22;5112103;28;20027;-75
2021/06/07 11:21:21;;;;;;;13.32;8.18;;;;;;;20.56;65.63;94044.22;5091796;28;20028;-74
2021/06/07 11:23:46;;;;;;;11.90;7.75;;;;;;;20.59;62.22;94043.50;5069927;28;20055;-76
2021/06/07 11:26:18;;;;;;;15.10;7.93;;;;;;;20.60;63.14;94044.31;5113123;28;20035;-80